Orangeburg, Kentucky
Current Conditions -  °F | °C
As of 5:55 PM on Friday 28 Nov 2014 (Local Time) from KFGX Reporting Station
Scattered Clouds Scattered Clouds  
Wind Chill: 27°   Ceiling: Unl
Heat Index: 32°   Visibility: 10mi
Dew Point: 19°   Wind: 5mph
Humidity: 59%   Direction: 170°S
Pressure: 30.23"   Gusts: NA
Location:  38.585°N, 83.7789°W
Report Text: KFGX 282255Z AUTO 17004KT 10SM SCT120 00/M07 A3023 RMK AO2 T00001071
Loading
Personal Weather Stations






























Interactive Weather Map New forecast layout! Learn more

10-Day Weather Forecast

Advertisements
Track Severe Weather on mobile